Terminal Aerodrome Forecast
Issued by NWS

Current Version | Previous Version | Text Only | Print | Product List | Glossary On
Versions: 1 2 3 4 5 6 7 8 9 10 11 12 13 14 15 16 17 18
000
FTUS43 KSGF 311500 AAB
TAFJLN
TAF AMD
KJLN 311532Z 3116/0112 05005KT P6SM BKN015
     FM311700 06005KT P6SM BKN025
     FM010000 VRB03KT P6SM FEW040 SCT250
      TEMPO 0108/0112 3SM BR=

USA.gov is the U.S. government's official web portal to all federal, state and local government web resources and services.